createdAt,value
2023-02-24T00:00:20.208Z,78.79
2023-02-24T00:01:22.100Z,78.63
2023-02-24T00:02:24.027Z,78.39
2023-02-24T00:03:25.901Z,78.21
2023-02-24T00:04:36.667Z,78.08
2023-02-24T00:05:38.987Z,78.38
2023-02-24T00:06:43.107Z,78.26
2023-02-24T00:07:44.858Z,78.13
2023-02-24T00:08:46.678Z,78.08
2023-02-24T00:09:48.361Z,77.94
2023-02-24T00:10:50.195Z,77.95
2023-02-24T00:11:54.836Z,78.13
2023-02-24T00:12:56.737Z,78.07
2023-02-24T00:13:58.673Z,78.07
2023-02-24T00:15:00.473Z,78.25
2023-02-24T00:16:03.781Z,78.00
2023-02-24T00:17:06.967Z,77.93
2023-02-24T00:18:08.748Z,77.95
2023-02-24T00:19:13.396Z,78.40
2023-02-24T00:20:15.266Z,78.32
2023-02-24T00:21:17.791Z,78.23
2023-02-24T00:22:19.573Z,78.45
2023-02-24T00:23:21.398Z,78.46
2023-02-24T00:24:23.254Z,78.48
2023-02-24T00:25:24.944Z,78.32
2023-02-24T00:26:27.871Z,78.29
2023-02-24T00:27:29.686Z,78.43
2023-02-24T00:28:31.374Z,78.35
2023-02-24T00:29:34.266Z,78.27
2023-02-24T00:30:36.413Z,78.14
2023-02-24T00:31:38.610Z,78.06
2023-02-24T00:32:40.512Z,78.04
2023-02-24T00:33:46.683Z,77.88
2023-02-24T00:34:48.465Z,77.76
2023-02-24T00:35:51.202Z,77.80
2023-02-24T00:36:53.155Z,77.85
2023-02-24T00:37:55.152Z,77.94
2023-02-24T00:39:00.231Z,77.76
2023-02-24T00:40:02.059Z,78.14
2023-02-24T00:41:12.859Z,78.28
2023-02-24T00:42:14.666Z,78.11
2023-02-24T00:43:16.426Z,78.11
2023-02-24T00:44:18.425Z,78.22
2023-02-24T00:45:20.236Z,78.23
2023-02-24T00:46:24.672Z,78.15
2023-02-24T00:47:26.394Z,78.10
2023-02-24T00:48:28.969Z,78.33
2023-02-24T00:49:31.505Z,78.46
2023-02-24T00:50:33.344Z,78.44
2023-02-24T00:51:38.048Z,78.33
2023-02-24T00:52:39.915Z,77.96
2023-02-24T00:53:41.595Z,78.58
2023-02-24T00:54:44.882Z,78.83
2023-02-24T00:55:46.514Z,78.88
2023-02-24T00:56:48.856Z,78.84
2023-02-24T00:57:50.630Z,78.71
2023-02-24T00:58:58.498Z,78.70
2023-02-24T01:00:00.312Z,78.73
2023-02-24T01:01:03.325Z,78.90
2023-02-24T01:02:05.768Z,79.04
2023-02-24T01:03:07.607Z,79.10
2023-02-24T01:04:09.778Z,78.92
2023-02-24T01:05:12.963Z,78.94
2023-02-24T01:06:15.188Z,78.80
2023-02-24T01:07:17.231Z,78.50
2023-02-24T01:08:19.889Z,78.71
2023-02-24T01:09:21.640Z,78.80
2023-02-24T01:10:23.534Z,78.85
2023-02-24T01:11:27.630Z,78.66
2023-02-24T01:12:29.331Z,78.72
2023-02-24T01:13:31.144Z,78.69
2023-02-24T01:14:36.066Z,78.69
2023-02-24T01:15:38.004Z,78.66
2023-02-24T01:16:41.088Z,78.69
2023-02-24T01:17:42.993Z,79.11
2023-02-24T01:18:46.584Z,79.01
2023-02-24T01:19:49.589Z,79.03
2023-02-24T01:20:51.557Z,78.88
2023-02-24T01:21:53.524Z,79.09
2023-02-24T01:22:56.177Z,79.57
2023-02-24T01:23:58.400Z,79.47
2023-02-24T01:25:00.494Z,79.45
2023-02-24T01:26:03.305Z,79.30
2023-02-24T01:27:06.366Z,79.32
2023-02-24T01:28:08.200Z,79.42
2023-02-24T01:29:10.180Z,79.46
2023-02-24T01:30:13.150Z,79.51
2023-02-24T01:31:17.001Z,79.20
2023-02-24T01:32:21.566Z,79.19
2023-02-24T01:33:23.608Z,79.20
2023-02-24T01:34:27.449Z,79.28
2023-02-24T01:35:29.371Z,79.15
2023-02-24T01:36:31.083Z,79.12
2023-02-24T01:37:32.954Z,78.98
2023-02-24T01:38:34.709Z,79.29
2023-02-24T01:39:36.886Z,79.16
2023-02-24T01:40:38.953Z,79.13
2023-02-24T01:41:43.467Z,79.08
2023-02-24T01:42:45.258Z,79.54
2023-02-24T01:44:16.272Z,79.23
2023-02-24T01:45:27.486Z,79.50
2023-02-24T01:46:34.166Z,79.81
2023-02-24T01:47:36.582Z,79.66
2023-02-24T01:48:38.692Z,79.51
2023-02-24T01:49:46.736Z,79.42
2023-02-24T01:50:50.172Z,79.33
2023-02-24T01:51:59.103Z,78.95
2023-02-24T01:53:04.600Z,78.92
2023-02-24T01:54:08.438Z,78.95
2023-02-24T01:55:36.426Z,78.79
2023-02-24T01:56:40.324Z,79.31
2023-02-24T01:57:42.612Z,79.25
2023-02-24T01:58:44.401Z,79.05
2023-02-24T01:59:52.373Z,79.04
2023-02-24T02:00:55.953Z,78.97
2023-02-24T02:02:01.993Z,78.78
2023-02-24T02:03:29.833Z,78.87
2023-02-24T02:04:38.083Z,78.82
2023-02-24T02:05:42.480Z,78.82
2023-02-24T02:06:46.766Z,79.01
2023-02-24T02:07:48.773Z,78.97
2023-02-24T02:08:51.091Z,78.77
2023-02-24T02:09:53.333Z,78.80
2023-02-24T02:10:57.820Z,78.76
2023-02-24T02:11:59.740Z,78.99
2023-02-24T02:13:01.480Z,78.85
2023-02-24T02:14:03.349Z,78.89
2023-02-24T02:15:06.822Z,79.38
2023-02-24T02:16:08.457Z,79.12
2023-02-24T02:17:41.495Z,79.19
2023-02-24T02:19:14.110Z,78.93
2023-02-24T02:20:54.801Z,78.92
2023-02-24T02:22:26.214Z,78.65
2023-02-24T02:23:53.494Z,78.59
2023-02-24T02:24:55.593Z,78.77
2023-02-24T02:26:16.332Z,78.81
2023-02-24T02:27:52.055Z,78.72
2023-02-24T02:29:18.648Z,78.81
2023-02-24T02:30:43.467Z,78.68
2023-02-24T02:31:54.400Z,78.68
2023-02-24T02:33:27.228Z,78.71
2023-02-24T02:34:51.961Z,78.62
2023-02-24T02:36:08.378Z,78.36
2023-02-24T02:37:43.943Z,78.37
2023-02-24T02:38:51.931Z,78.00
2023-02-24T02:40:06.658Z,78.21
2023-02-24T02:41:29.609Z,78.30
2023-02-24T02:42:39.709Z,78.15
2023-02-24T02:44:04.748Z,78.33
2023-02-24T02:45:13.492Z,78.08
2023-02-24T02:46:20.823Z,78.09
2023-02-24T02:47:25.556Z,77.99
2023-02-24T02:48:48.519Z,78.23
2023-02-24T02:49:56.950Z,78.05
2023-02-24T02:51:16.135Z,78.33
2023-02-24T02:52:46.535Z,78.12
2023-02-24T02:53:56.114Z,77.95
2023-02-24T02:55:10.242Z,78.29
2023-02-24T02:56:33.586Z,78.24
2023-02-24T02:57:37.680Z,77.98
2023-02-24T02:58:45.061Z,78.07
2023-02-24T02:59:55.451Z,77.98
2023-02-24T03:01:03.369Z,77.97
2023-02-24T03:02:07.617Z,78.07
2023-02-24T03:03:15.284Z,78.07
2023-02-24T03:04:23.272Z,77.70
2023-02-24T03:05:35.385Z,78.02
2023-02-24T03:07:00.785Z,77.93
2023-02-24T03:08:05.708Z,77.92
2023-02-24T03:09:12.364Z,77.84
2023-02-24T03:10:20.579Z,77.89
2023-02-24T03:11:23.364Z,77.90
2023-02-24T03:12:29.648Z,78.19
2023-02-24T03:13:37.875Z,78.28
2023-02-24T03:14:47.021Z,78.36
2023-02-24T03:15:51.885Z,78.13
2023-02-24T03:16:55.700Z,78.03
2023-02-24T03:18:09.474Z,78.04
2023-02-24T03:19:13.468Z,78.04
2023-02-24T03:20:30.058Z,78.21
2023-02-24T03:21:47.056Z,78.26
2023-02-24T03:23:14.205Z,78.28
2023-02-24T03:24:16.134Z,78.09
2023-02-24T03:25:25.644Z,78.16
2023-02-24T03:26:33.641Z,78.09
2023-02-24T03:27:50.626Z,77.81
2023-02-24T03:29:20.520Z,77.91
2023-02-24T03:30:32.331Z,77.82
2023-02-24T03:31:44.762Z,77.98
2023-02-24T03:32:54.811Z,77.75
2023-02-24T03:34:12.385Z,77.89
2023-02-24T03:35:19.648Z,77.89
2023-02-24T03:36:21.507Z,77.95
2023-02-24T03:37:25.185Z,77.59
2023-02-24T03:38:27.255Z,77.48
2023-02-24T03:39:29.237Z,77.37
2023-02-24T03:40:30.980Z,77.62
2023-02-24T03:41:39.887Z,77.52
2023-02-24T03:42:46.203Z,77.69
2023-02-24T03:43:49.579Z,77.64
2023-02-24T03:44:51.289Z,77.64
2023-02-24T03:45:53.165Z,77.49
2023-02-24T03:46:55.138Z,77.82
2023-02-24T03:47:56.999Z,77.80
2023-02-24T03:49:16.955Z,77.76
2023-02-24T03:50:21.071Z,77.68
2023-02-24T03:51:23.725Z,77.65
2023-02-24T03:52:40.857Z,77.50
2023-02-24T03:54:21.098Z,77.40
2023-02-24T03:55:34.328Z,77.22
2023-02-24T03:57:06.839Z,77.32
2023-02-24T03:58:08.534Z,77.41
2023-02-24T03:59:34.478Z,77.53
2023-02-24T04:00:41.889Z,77.67
2023-02-24T04:02:08.735Z,77.64
2023-02-24T04:03:49.014Z,77.42
2023-02-24T04:04:55.297Z,77.41
2023-02-24T04:06:13.054Z,77.45
2023-02-24T04:07:29.571Z,77.45
2023-02-24T04:08:47.545Z,77.78
2023-02-24T04:10:25.219Z,78.12
2023-02-24T04:11:58.422Z,78.15
2023-02-24T04:13:02.373Z,77.84
2023-02-24T04:14:09.850Z,77.53
2023-02-24T04:15:34.304Z,77.85
2023-02-24T04:16:43.574Z,77.77
2023-02-24T04:17:50.820Z,77.73
2023-02-24T04:18:52.755Z,77.55
2023-02-24T04:19:58.596Z,77.64
2023-02-24T04:21:04.984Z,77.80
2023-02-24T04:22:10.740Z,77.87
2023-02-24T04:23:16.902Z,77.89
2023-02-24T04:24:24.128Z,78.03
2023-02-24T04:25:27.632Z,77.97
2023-02-24T04:26:30.291Z,78.11
2023-02-24T04:27:33.144Z,78.00
2023-02-24T04:28:35.465Z,77.85
2023-02-24T04:29:46.480Z,77.60
2023-02-24T04:30:50.830Z,77.41
2023-02-24T04:32:01.296Z,77.40
2023-02-24T04:33:04.214Z,77.17
2023-02-24T04:34:06.674Z,77.48
2023-02-24T04:35:13.128Z,77.57
2023-02-24T04:36:14.888Z,77.51
2023-02-24T04:37:18.229Z,77.59
2023-02-24T04:38:20.868Z,77.47
2023-02-24T04:39:23.092Z,77.53
2023-02-24T04:40:25.497Z,77.39
2023-02-24T04:41:27.430Z,77.23
2023-02-24T04:42:29.348Z,77.11
2023-02-24T04:43:31.098Z,77.03
2023-02-24T04:44:33.182Z,77.33
2023-02-24T04:45:35.208Z,77.23
2023-02-24T04:46:36.942Z,77.01
2023-02-24T04:47:38.843Z,77.05
2023-02-24T04:48:40.748Z,76.81
2023-02-24T04:49:42.618Z,77.31
2023-02-24T04:50:44.510Z,77.03
2023-02-24T04:51:46.641Z,77.28
2023-02-24T04:52:56.933Z,77.06
2023-02-24T04:53:59.166Z,77.11
2023-02-24T04:55:01.078Z,76.89
2023-02-24T04:56:05.773Z,76.96
2023-02-24T04:57:07.531Z,76.72
2023-02-24T04:58:18.366Z,76.98
2023-02-24T04:59:22.161Z,76.89
2023-02-24T05:00:24.634Z,77.00
2023-02-24T05:01:26.557Z,77.08
2023-02-24T05:02:28.468Z,77.20
2023-02-24T05:03:30.236Z,77.14
2023-02-24T05:04:35.792Z,77.11
2023-02-24T05:05:38.115Z,77.32
2023-02-24T05:06:43.279Z,77.35
2023-02-24T05:07:44.984Z,77.56
2023-02-24T05:08:46.800Z,77.45
2023-02-24T05:09:48.516Z,77.48
2023-02-24T05:10:51.180Z,77.58
2023-02-24T05:11:52.802Z,77.39
2023-02-24T05:12:55.402Z,77.24
2023-02-24T05:13:57.343Z,77.39
2023-02-24T05:14:59.177Z,77.31
2023-02-24T05:16:09.030Z,77.31
2023-02-24T05:17:10.760Z,77.37
2023-02-24T05:18:14.926Z,77.36
2023-02-24T05:19:19.976Z,77.33
2023-02-24T05:20:21.709Z,77.48
2023-02-24T05:21:23.407Z,77.16
2023-02-24T05:22:25.107Z,77.15
2023-02-24T05:23:28.678Z,77.14
2023-02-24T05:24:31.585Z,77.39
2023-02-24T05:25:33.556Z,77.27
2023-02-24T05:26:38.407Z,77.24
2023-02-24T05:27:40.064Z,77.41
2023-02-24T05:28:43.097Z,77.42
2023-02-24T05:29:44.922Z,77.58
2023-02-24T05:30:46.674Z,77.71
2023-02-24T05:31:48.511Z,77.83
2023-02-24T05:32:50.419Z,77.87
2023-02-24T05:33:56.068Z,77.88
2023-02-24T05:34:57.938Z,77.85
2023-02-24T05:36:05.766Z,78.81
2023-02-24T05:37:07.608Z,79.08
2023-02-24T05:38:09.329Z,79.08
2023-02-24T05:39:11.441Z,79.50
2023-02-24T05:40:13.485Z,80.12
2023-02-24T05:41:17.790Z,80.54
2023-02-24T05:42:19.718Z,80.53
2023-02-24T05:43:21.455Z,80.55
2023-02-24T05:44:25.390Z,80.23
2023-02-24T05:45:27.138Z,80.62
2023-02-24T05:46:31.848Z,80.38
2023-02-24T05:47:33.968Z,80.47
2023-02-24T05:48:36.195Z,81.08
2023-02-24T05:49:38.381Z,80.71
2023-02-24T05:50:40.181Z,80.83
2023-02-24T05:51:43.000Z,80.68
2023-02-24T05:52:44.757Z,80.77
2023-02-24T05:53:46.484Z,80.79
2023-02-24T05:54:48.545Z,81.00
2023-02-24T05:55:50.250Z,81.34
2023-02-24T05:56:52.125Z,81.33
2023-02-24T05:57:54.005Z,81.17
2023-02-24T05:58:55.840Z,81.20
2023-02-24T05:59:58.423Z,81.11
2023-02-24T06:01:00.195Z,80.88
2023-02-24T06:02:05.511Z,80.72
2023-02-24T06:03:07.725Z,80.80
2023-02-24T06:04:10.027Z,80.76
2023-02-24T06:05:11.752Z,80.97
2023-02-24T06:06:18.170Z,81.13
2023-02-24T06:07:25.580Z,81.25
2023-02-24T06:08:27.412Z,81.25
2023-02-24T06:09:29.223Z,81.40
2023-02-24T06:10:35.094Z,81.66
2023-02-24T06:11:38.807Z,81.77
2023-02-24T06:12:40.675Z,81.43
2023-02-24T06:13:42.399Z,80.78
2023-02-24T06:14:44.429Z,81.56
2023-02-24T06:15:46.175Z,81.63
2023-02-24T06:16:48.113Z,81.19
2023-02-24T06:17:49.900Z,81.41
2023-02-24T06:18:52.077Z,81.21
2023-02-24T06:19:54.634Z,81.34
2023-02-24T06:20:56.704Z,81.40
2023-02-24T06:22:00.115Z,81.46
2023-02-24T06:23:01.875Z,81.42
2023-02-24T06:24:03.927Z,81.45
2023-02-24T06:25:06.205Z,81.29
2023-02-24T06:26:08.460Z,80.92
2023-02-24T06:27:14.945Z,80.84
2023-02-24T06:28:16.765Z,80.73
2023-02-24T06:29:19.441Z,80.81
2023-02-24T06:30:25.547Z,81.11
2023-02-24T06:31:27.990Z,80.76
2023-02-24T06:32:29.946Z,80.90
2023-02-24T06:33:31.868Z,80.74
2023-02-24T06:34:34.724Z,80.52
2023-02-24T06:35:37.033Z,80.78
2023-02-24T06:36:39.223Z,80.84
2023-02-24T06:37:41.359Z,81.34
2023-02-24T06:38:43.306Z,81.17
2023-02-24T06:39:45.392Z,81.40
2023-02-24T06:40:47.163Z,81.32
2023-02-24T06:41:50.456Z,80.93
2023-02-24T06:42:53.046Z,80.92
2023-02-24T06:43:54.951Z,80.64
2023-02-24T06:44:56.938Z,80.74
2023-02-24T06:45:59.462Z,80.67
2023-02-24T06:47:01.941Z,80.95
2023-02-24T06:48:04.148Z,80.50
2023-02-24T06:49:05.876Z,80.67
2023-02-24T06:50:07.888Z,80.57
2023-02-24T06:51:12.904Z,80.67
2023-02-24T06:52:14.935Z,80.46
2023-02-24T06:53:16.796Z,80.01
2023-02-24T06:54:18.883Z,79.98
2023-02-24T06:55:20.900Z,80.11
2023-02-24T06:56:23.054Z,80.31
2023-02-24T06:57:24.733Z,80.36
2023-02-24T06:58:26.409Z,80.27
2023-02-24T06:59:31.624Z,79.81
2023-02-24T07:00:36.057Z,79.82
2023-02-24T07:01:39.244Z,80.05
2023-02-24T07:02:41.385Z,80.28
2023-02-24T07:03:44.367Z,79.86
2023-02-24T07:04:46.229Z,79.98
2023-02-24T07:05:51.047Z,79.62
2023-02-24T07:06:56.415Z,79.57
2023-02-24T07:07:58.197Z,79.33
2023-02-24T07:09:05.679Z,79.26
2023-02-24T07:10:07.726Z,79.20
2023-02-24T07:11:09.506Z,79.27
2023-02-24T07:12:11.572Z,79.25
2023-02-24T07:13:13.354Z,79.23
2023-02-24T07:14:15.192Z,79.23
2023-02-24T07:15:17.021Z,79.15
2023-02-24T07:16:21.010Z,79.46
2023-02-24T07:17:22.735Z,80.24
2023-02-24T07:18:24.457Z,80.12
2023-02-24T07:19:29.394Z,80.16
2023-02-24T07:20:31.168Z,80.07
2023-02-24T07:21:32.936Z,79.75
2023-02-24T07:22:34.963Z,79.52
2023-02-24T07:23:37.412Z,79.59
2023-02-24T07:24:39.493Z,79.48
2023-02-24T07:25:42.798Z,79.30
2023-02-24T07:26:44.789Z,79.67
2023-02-24T07:27:46.611Z,79.49
2023-02-24T07:28:48.351Z,79.62
2023-02-24T07:29:53.010Z,79.83
2023-02-24T07:30:56.415Z,79.77
2023-02-24T07:32:03.708Z,79.57
2023-02-24T07:33:06.906Z,79.16
2023-02-24T07:34:08.742Z,79.17
2023-02-24T07:35:10.525Z,78.94
2023-02-24T07:36:17.121Z,78.81
2023-02-24T07:37:19.187Z,79.03
2023-02-24T07:38:21.184Z,79.02
2023-02-24T07:39:24.867Z,78.96
2023-02-24T07:40:26.654Z,78.60
2023-02-24T07:41:31.207Z,78.48
2023-02-24T07:42:33.160Z,79.13
2023-02-24T07:43:35.686Z,78.73
2023-02-24T07:44:37.896Z,78.81
2023-02-24T07:45:40.116Z,78.91
2023-02-24T07:46:42.270Z,78.82
2023-02-24T07:47:44.503Z,78.81
2023-02-24T07:48:46.848Z,78.83
2023-02-24T07:49:48.691Z,78.56
2023-02-24T07:50:50.503Z,78.34
2023-02-24T07:51:54.244Z,78.40
2023-02-24T07:52:56.109Z,78.26
2023-02-24T07:53:59.609Z,78.40
2023-02-24T07:55:01.785Z,77.96
2023-02-24T07:56:08.566Z,77.63
2023-02-24T07:57:10.650Z,77.87
2023-02-24T07:58:12.828Z,77.78
2023-02-24T07:59:15.513Z,77.45
2023-02-24T08:00:18.212Z,77.66
2023-02-24T08:01:20.485Z,77.80
2023-02-24T08:02:22.662Z,78.04
2023-02-24T08:03:24.644Z,78.05
2023-02-24T08:04:29.945Z,77.62
2023-02-24T08:05:31.850Z,77.42
2023-02-24T08:06:39.181Z,77.36
2023-02-24T08:07:41.141Z,77.29
2023-02-24T08:08:43.541Z,76.94
2023-02-24T08:09:45.586Z,77.11
2023-02-24T08:10:47.411Z,76.83
2023-02-24T08:11:54.872Z,76.71
2023-02-24T08:12:57.151Z,77.16
2023-02-24T08:13:59.043Z,76.97
2023-02-24T08:15:01.449Z,77.20
2023-02-24T08:16:05.910Z,77.16
2023-02-24T08:17:08.791Z,77.24
2023-02-24T08:18:10.577Z,77.57
2023-02-24T08:19:14.959Z,77.41
2023-02-24T08:20:16.832Z,77.60
2023-02-24T08:21:19.398Z,77.51
2023-02-24T08:22:21.984Z,77.20
2023-02-24T08:23:24.436Z,76.68
2023-02-24T08:24:26.144Z,76.64
2023-02-24T08:25:29.426Z,76.37
2023-02-24T08:26:31.225Z,76.12
2023-02-24T08:27:35.689Z,76.66
2023-02-24T08:28:37.918Z,76.53
2023-02-24T08:29:40.460Z,76.53
2023-02-24T08:30:44.138Z,76.20
2023-02-24T08:31:46.434Z,76.27
2023-02-24T08:32:48.198Z,76.18
2023-02-24T08:33:50.082Z,76.09
2023-02-24T08:34:52.370Z,75.86
2023-02-24T08:35:55.235Z,75.81
2023-02-24T08:36:57.410Z,76.16
2023-02-24T08:38:06.060Z,76.32
2023-02-24T08:39:07.890Z,76.32
2023-02-24T08:40:11.910Z,76.48
2023-02-24T08:41:16.959Z,76.76
2023-02-24T08:42:18.686Z,76.53
2023-02-24T08:43:29.273Z,76.40
2023-02-24T08:44:31.052Z,76.94
2023-02-24T08:45:33.412Z,77.11
2023-02-24T08:46:35.149Z,77.01
2023-02-24T08:47:37.064Z,76.76
2023-02-24T08:48:44.244Z,77.05
2023-02-24T08:49:47.029Z,76.72
2023-02-24T08:50:48.774Z,76.37
2023-02-24T08:51:52.503Z,75.48
2023-02-24T08:52:54.160Z,75.25
2023-02-24T08:53:58.948Z,74.89
2023-02-24T08:55:00.846Z,74.60
2023-02-24T08:56:04.009Z,74.44
2023-02-24T08:57:06.003Z,74.36
2023-02-24T08:58:07.749Z,73.93
2023-02-24T08:59:14.113Z,73.95
2023-02-24T09:00:16.167Z,73.67
2023-02-24T09:01:23.255Z,74.00
2023-02-24T09:02:26.169Z,73.49
2023-02-24T09:03:30.265Z,73.47
2023-02-24T09:04:32.041Z,73.34
2023-02-24T09:05:33.851Z,73.74
2023-02-24T09:06:38.795Z,73.23
2023-02-24T09:07:41.812Z,72.70
2023-02-24T09:08:46.016Z,72.88
2023-02-24T09:09:47.904Z,72.03
2023-02-24T09:10:50.302Z,72.07
2023-02-24T09:11:53.669Z,71.55
2023-02-24T09:12:55.463Z,71.30
2023-02-24T09:13:57.476Z,71.28
2023-02-24T09:15:03.507Z,71.21
2023-02-24T09:16:05.755Z,71.52
2023-02-24T09:17:07.747Z,71.36
2023-02-24T09:18:09.430Z,71.09
2023-02-24T09:19:11.178Z,71.35
2023-02-24T09:20:22.888Z,71.25
2023-02-24T09:21:24.872Z,71.62
2023-02-24T09:22:29.670Z,71.49
2023-02-24T09:23:31.444Z,71.69
2023-02-24T09:24:33.210Z,71.10
2023-02-24T09:25:37.158Z,70.98
2023-02-24T09:26:39.224Z,70.28
2023-02-24T09:27:41.552Z,70.24
2023-02-24T09:28:43.541Z,70.25
2023-02-24T09:29:45.240Z,69.86
2023-02-24T09:30:58.747Z,69.54
2023-02-24T09:32:05.803Z,69.49
2023-02-24T09:33:16.772Z,70.51
2023-02-24T09:34:18.752Z,70.10
2023-02-24T09:35:21.390Z,70.22
2023-02-24T09:36:23.971Z,69.89
2023-02-24T09:37:25.956Z,69.87
2023-02-24T09:38:28.055Z,69.58
2023-02-24T09:39:34.466Z,69.25
2023-02-24T09:40:40.285Z,69.31
2023-02-24T09:41:51.598Z,69.00
2023-02-24T09:42:53.682Z,68.73
2023-02-24T09:43:55.832Z,68.42
2023-02-24T09:45:23.194Z,68.39
2023-02-24T09:46:26.061Z,68.40
2023-02-24T09:47:40.408Z,68.49
2023-02-24T09:48:55.631Z,68.15
2023-02-24T09:50:03.193Z,68.55
2023-02-24T09:51:05.648Z,68.13
2023-02-24T09:52:16.662Z,67.96
2023-02-24T09:53:18.733Z,67.77
2023-02-24T09:54:21.856Z,67.20
2023-02-24T09:55:44.375Z,67.29
2023-02-24T09:56:53.893Z,67.73
2023-02-24T09:58:08.427Z,67.99
2023-02-24T09:59:26.668Z,67.89
2023-02-24T10:00:30.655Z,68.30
2023-02-24T10:02:06.741Z,68.39
2023-02-24T10:03:21.671Z,67.87
2023-02-24T10:05:14.180Z,68.22
2023-02-24T10:06:26.024Z,67.87
2023-02-24T10:07:33.659Z,68.12
2023-02-24T10:08:38.815Z,68.03
2023-02-24T10:10:02.707Z,67.67
2023-02-24T10:11:05.571Z,67.06
2023-02-24T10:12:07.665Z,66.86
2023-02-24T10:13:17.980Z,66.56
2023-02-24T10:14:51.537Z,65.68
2023-02-24T10:16:06.116Z,65.40
2023-02-24T10:17:17.168Z,63.34
2023-02-24T10:18:45.170Z,61.97
2023-02-24T10:19:46.856Z,61.08
2023-02-24T10:20:48.686Z,59.88
2023-02-24T10:22:01.744Z,58.06
2023-02-24T10:23:10.648Z,58.05
2023-02-24T10:24:25.031Z,57.92
2023-02-24T10:25:40.210Z,59.01
2023-02-24T10:27:08.176Z,58.74
2023-02-24T10:28:35.377Z,57.78
2023-02-24T10:29:43.522Z,57.71
2023-02-24T10:31:06.652Z,57.18
2023-02-24T10:32:49.268Z,56.72
2023-02-24T10:33:56.467Z,56.17
2023-02-24T10:34:58.284Z,57.18
2023-02-24T10:36:07.695Z,56.01
2023-02-24T10:37:27.549Z,56.36
2023-02-24T10:38:30.701Z,56.39
2023-02-24T10:39:33.026Z,56.13
2023-02-24T10:40:46.191Z,56.85
2023-02-24T10:41:52.464Z,56.78
2023-02-24T10:43:06.975Z,56.10
2023-02-24T10:44:09.815Z,55.77
2023-02-24T10:45:23.124Z,54.90
2023-02-24T10:46:40.617Z,54.97
2023-02-24T10:47:45.884Z,54.68
2023-02-24T10:48:53.441Z,53.64
2023-02-24T10:49:59.697Z,53.84
2023-02-24T10:51:11.190Z,53.04
2023-02-24T10:52:14.581Z,52.66
2023-02-24T10:53:19.003Z,53.72
2023-02-24T10:54:28.333Z,54.34
2023-02-24T10:55:35.142Z,55.31
2023-02-24T10:56:43.640Z,55.88
2023-02-24T10:57:58.276Z,56.34
2023-02-24T10:59:10.598Z,57.24
2023-02-24T11:00:20.808Z,57.17
2023-02-24T11:01:29.762Z,57.77
2023-02-24T11:02:36.379Z,57.60
2023-02-24T11:03:41.136Z,59.26
2023-02-24T11:04:43.970Z,59.00
2023-02-24T11:05:46.582Z,58.57
2023-02-24T11:06:49.740Z,58.83
2023-02-24T11:07:51.558Z,58.98
2023-02-24T11:08:57.780Z,59.00
2023-02-24T11:10:12.375Z,57.79
2023-02-24T11:11:24.337Z,57.34
2023-02-24T11:12:26.808Z,57.23
2023-02-24T11:13:28.810Z,56.97
2023-02-24T11:14:30.886Z,56.96
2023-02-24T11:15:36.056Z,56.44
2023-02-24T11:16:51.017Z,56.34
2023-02-24T11:17:59.925Z,56.67
2023-02-24T11:19:01.814Z,56.93
2023-02-24T11:20:15.560Z,57.16
2023-02-24T11:21:17.895Z,57.97
2023-02-24T11:22:25.605Z,57.18
2023-02-24T11:23:40.427Z,57.18
2023-02-24T11:24:45.404Z,57.44
2023-02-24T11:25:51.414Z,57.52
2023-02-24T11:26:53.326Z,57.43
2023-02-24T11:27:56.739Z,57.59
2023-02-24T11:29:43.502Z,57.95
2023-02-24T11:31:17.274Z,58.63
2023-02-24T11:32:34.123Z,58.98
2023-02-24T11:33:35.796Z,59.07
2023-02-24T11:34:43.780Z,59.80
2023-02-24T11:36:30.449Z,59.84
2023-02-24T11:37:40.561Z,59.65
2023-02-24T11:38:46.338Z,60.84
2023-02-24T11:39:53.722Z,62.44
2023-02-24T11:41:21.111Z,62.90
2023-02-24T11:42:42.883Z,64.31
2023-02-24T11:43:59.350Z,65.12
2023-02-24T11:45:27.507Z,66.92
2023-02-24T11:46:43.776Z,67.91
2023-02-24T11:47:53.025Z,68.28
2023-02-24T11:48:58.536Z,66.11
2023-02-24T11:50:17.253Z,66.08
2023-02-24T11:51:27.279Z,66.37
2023-02-24T11:52:33.915Z,66.76
2023-02-24T11:53:42.679Z,67.29
2023-02-24T11:54:50.486Z,67.79
2023-02-24T11:56:16.857Z,67.92
2023-02-24T11:57:25.024Z,65.84
2023-02-24T11:58:34.758Z,66.02
2023-02-24T11:59:39.023Z,64.62
2023-02-24T12:00:51.644Z,63.42
2023-02-24T12:02:21.368Z,63.82
2023-02-24T12:03:46.077Z,65.04
2023-02-24T12:04:59.913Z,65.03
2023-02-24T12:06:13.889Z,65.07
2023-02-24T12:07:37.070Z,66.17
2023-02-24T12:08:41.743Z,67.62
2023-02-24T12:10:17.167Z,67.16
2023-02-24T12:11:38.282Z,68.11
2023-02-24T12:12:51.308Z,67.99
2023-02-24T12:14:04.342Z,68.37
2023-02-24T12:15:47.531Z,67.91
2023-02-24T12:16:59.109Z,68.84
2023-02-24T12:18:26.547Z,69.22
2023-02-24T12:19:35.801Z,69.39
2023-02-24T12:20:51.167Z,69.15
2023-02-24T12:22:06.449Z,68.33
2023-02-24T12:23:34.768Z,66.68
2023-02-24T12:24:37.038Z,66.56
2023-02-24T12:26:06.154Z,66.13
2023-02-24T12:27:46.788Z,67.51
2023-02-24T12:29:13.255Z,69.76
2023-02-24T12:30:39.019Z,71.51
2023-02-24T12:32:09.671Z,73.16
2023-02-24T12:33:20.816Z,73.83
2023-02-24T12:34:47.208Z,73.82
2023-02-24T12:36:03.287Z,73.40
2023-02-24T12:37:19.215Z,73.32
2023-02-24T12:38:59.399Z,73.65
2023-02-24T12:40:01.029Z,73.20
2023-02-24T12:41:08.572Z,72.82
2023-02-24T12:42:22.398Z,73.13
2023-02-24T12:43:34.549Z,73.82
2023-02-24T12:44:51.581Z,74.59
2023-02-24T12:46:01.697Z,74.30
2023-02-24T12:47:12.691Z,74.73
2023-02-24T12:49:02.598Z,75.45
2023-02-24T12:50:27.686Z,76.36
2023-02-24T12:51:58.046Z,75.82
2023-02-24T12:53:31.536Z,75.03
2023-02-24T12:55:18.011Z,74.75
2023-02-24T12:56:30.325Z,74.21
2023-02-24T12:57:53.143Z,73.69
2023-02-24T12:59:01.067Z,72.26
2023-02-24T13:00:13.845Z,71.66
2023-02-24T13:01:25.469Z,70.43
2023-02-24T13:02:46.119Z,69.78
2023-02-24T13:04:18.560Z,67.22
2023-02-24T13:05:29.978Z,66.13
2023-02-24T13:06:47.075Z,65.23
2023-02-24T13:08:03.876Z,65.78
2023-02-24T13:09:35.673Z,63.24
2023-02-24T13:11:15.506Z,62.61
2023-02-24T13:12:30.142Z,61.12
2023-02-24T13:13:43.873Z,62.32
2023-02-24T13:14:47.642Z,60.86
2023-02-24T13:15:58.384Z,61.38
2023-02-24T13:17:04.956Z,63.10
2023-02-24T13:18:10.197Z,64.46
2023-02-24T13:19:28.910Z,64.65
2023-02-24T13:20:30.827Z,64.70
2023-02-24T13:21:34.014Z,65.09
2023-02-24T13:22:42.019Z,64.83
2023-02-24T13:23:56.712Z,65.93
2023-02-24T13:25:08.901Z,65.86
2023-02-24T13:26:11.010Z,66.38
2023-02-24T13:27:12.713Z,65.24
2023-02-24T13:28:35.507Z,65.59
2023-02-24T13:29:52.218Z,64.40
2023-02-24T13:31:12.265Z,63.12
2023-02-24T13:32:36.289Z,61.93
2023-02-24T13:33:43.253Z,62.19
2023-02-24T13:34:45.773Z,63.31
2023-02-24T13:35:50.738Z,62.58
2023-02-24T13:36:52.717Z,62.58
2023-02-24T13:37:54.873Z,63.78
2023-02-24T13:39:20.494Z,63.82
2023-02-24T13:40:26.272Z,63.86
2023-02-24T13:41:28.925Z,63.93
2023-02-24T13:42:31.418Z,64.21
2023-02-24T13:43:33.657Z,63.03
2023-02-24T13:44:35.437Z,63.81
2023-02-24T13:45:40.021Z,61.97
2023-02-24T13:47:04.694Z,61.08
2023-02-24T13:48:45.042Z,60.29
2023-02-24T13:50:20.020Z,60.21
2023-02-24T13:51:42.889Z,60.38
2023-02-24T13:53:02.856Z,59.86
2023-02-24T13:54:46.463Z,59.72
2023-02-24T13:55:58.865Z,60.81
2023-02-24T13:57:09.431Z,59.49
2023-02-24T13:58:32.546Z,60.21
2023-02-24T14:00:09.344Z,63.10
2023-02-24T14:01:14.371Z,62.26
2023-02-24T14:02:22.952Z,62.07
2023-02-24T14:03:27.153Z,62.54
2023-02-24T14:04:33.303Z,62.36
2023-02-24T14:05:36.243Z,61.92
2023-02-24T14:06:38.050Z,62.55
2023-02-24T14:07:40.585Z,62.53
2023-02-24T14:08:51.782Z,61.97
2023-02-24T14:10:03.415Z,62.26
2023-02-24T14:11:10.005Z,62.95
2023-02-24T14:12:19.414Z,63.32
2023-02-24T14:13:29.288Z,63.20
2023-02-24T14:14:31.903Z,63.83
2023-02-24T14:15:34.763Z,63.25
2023-02-24T14:16:39.017Z,63.55
2023-02-24T14:17:40.818Z,62.80
2023-02-24T14:18:42.571Z,63.56
2023-02-24T14:19:44.357Z,63.80
2023-02-24T14:20:46.255Z,63.01
2023-02-24T14:21:59.197Z,61.87
2023-02-24T14:23:01.861Z,62.08
2023-02-24T14:24:11.725Z,63.12
2023-02-24T14:25:15.157Z,63.33
2023-02-24T14:26:16.943Z,64.30
2023-02-24T14:27:26.009Z,64.82
2023-02-24T14:28:33.629Z,63.96
2023-02-24T14:29:43.918Z,63.97
2023-02-24T14:30:56.658Z,64.76
2023-02-24T14:31:59.169Z,63.89
2023-02-24T14:33:03.006Z,63.59